Aiken, Texas
Current Conditions -  °F | °C
As of 5:15 PM on Tuesday 27 Jan 2015 (Local Time) from KPVW Reporting Station
Clear Clear  
Wind Chill: 21°   Ceiling: Unl
Heat Index: 21°   Visibility: 10mi
Dew Point:   Wind: 6mph
Humidity: 25%   Direction: 230°SW
Pressure: 30.12"   Gusts: NA
Location:  34.14°N, 101.53°W
Report Text: KPVW 272315Z AUTO 23005KT 10SM CLR 21/00 A3012 RMK AO2 T02110000
Loading
Personal Weather Stations






























Interactive Weather Map New forecast layout! Learn more

10-Day Weather Forecast

Advertisements
Track Severe Weather on mobile